Time;durP1;ratioP1;P1;durP2;ratioP2;P2;SDS_P1;SDS_P2;PMS_P1;PMS_P2;Temp;Humidity;BMP_temperature;BMP_pressure;BME280_temperature;BME280_humidity;BME280_pressure;Samples;Min_cycle;Max_cycle;Signal;HPM_P1;HPM_P2
2021/11/19 00:00:16;;;;;;;20.08;10.68;;;;;;;3.90;nan;102015.94;4990582;28;20037;-76
2021/11/19 00:02:42;;;;;;;15.07;9.93;;;;;;;3.87;nan;102009.06;4990201;28;20030;-76
2021/11/19 00:05:09;;;;;;;15.60;10.48;;;;;;;3.85;nan;102021.38;4990021;28;20084;-77
2021/11/19 00:07:34;;;;;;;15.57;9.88;;;;;;;3.81;nan;102019.81;4989241;28;20115;-77
2021/11/19 00:10:00;;;;;;;19.27;10.88;;;;;;;3.75;nan;102017.50;4990262;28;20037;-76
2021/11/19 00:12:25;;;;;;;18.52;11.25;;;;;;;3.73;nan;102017.56;4987904;28;20038;-79
2021/11/19 00:14:52;;;;;;;12.75;9.02;;;;;;;3.76;nan;102021.81;4989893;28;20486;-76
2021/11/19 00:17:17;;;;;;;18.60;10.18;;;;;;;3.82;nan;102013.69;4988859;28;20089;-77
2021/11/19 00:19:44;;;;;;;17.20;10.80;;;;;;;3.89;nan;102012.47;4988625;28;20395;-77
2021/11/19 00:22:12;;;;;;;18.80;10.43;;;;;;;3.92;nan;102014.09;4989265;28;20041;-76
2021/11/19 00:24:38;;;;;;;17.13;9.77;;;;;;;3.96;nan;102013.88;4988930;28;20467;-76
2021/11/19 00:27:05;;;;;;;17.25;9.52;;;;;;;3.97;nan;102005.09;4989224;28;20034;-77
2021/11/19 00:29:30;;;;;;;16.98;10.82;;;;;;;3.94;nan;102015.72;4990171;28;20042;-76
2021/11/19 00:31:56;;;;;;;18.23;11.55;;;;;;;3.86;nan;102012.59;4989803;28;20435;-76
2021/11/19 00:34:22;;;;;;;15.98;9.82;;;;;;;3.86;nan;102014.38;4995178;28;20043;-76
2021/11/19 00:36:48;;;;;;;18.15;10.15;;;;;;;3.85;nan;102018.75;4989763;28;20035;-77
2021/11/19 00:39:17;;;;;;;22.75;11.02;;;;;;;3.86;nan;102020.44;4989811;28;20026;-77
2021/11/19 00:41:45;;;;;;;20.75;10.93;;;;;;;3.81;nan;102017.19;4989576;28;20096;-77
2021/11/19 00:44:11;;;;;;;19.45;11.43;;;;;;;3.76;nan;102014.78;4988206;28;20062;-76
2021/11/19 00:46:39;;;;;;;18.73;10.82;;;;;;;3.77;nan;102018.28;4993582;28;20061;-77
2021/11/19 00:49:05;;;;;;;16.98;10.25;;;;;;;3.77;nan;102026.13;4992187;28;20046;-76
2021/11/19 00:51:35;;;;;;;19.95;10.52;;;;;;;3.81;nan;102035.50;4992820;28;20038;-77
2021/11/19 00:54:02;;;;;;;23.77;11.70;;;;;;;3.77;nan;102031.38;4993205;28;20034;-76
2021/11/19 00:56:31;;;;;;;17.80;10.50;;;;;;;3.79;nan;102037.34;4992335;28;20041;-76
2021/11/19 00:58:57;;;;;;;18.25;10.02;;;;;;;3.89;nan;102038.66;4991961;28;20045;-76
2021/11/19 01:01:34;;;;;;;16.83;10.50;;;;;;;3.97;nan;102036.50;4994969;28;20069;-77
2021/11/19 01:04:01;;;;;;;17.35;10.05;;;;;;;4.06;nan;102037.84;4992507;28;21350;-77
2021/11/19 01:06:27;;;;;;;20.92;12.10;;;;;;;4.12;nan;102039.31;4992658;28;20077;-76
2021/11/19 01:08:54;;;;;;;20.23;11.60;;;;;;;4.13;nan;102034.03;4994317;28;20534;-77
2021/11/19 01:11:22;;;;;;;20.52;11.25;;;;;;;4.14;nan;102035.69;4994160;28;20534;-77
2021/11/19 01:13:49;;;;;;;19.15;11.13;;;;;;;4.12;nan;102036.69;4993215;28;20026;-77
2021/11/19 01:16:22;;;;;;;19.38;11.25;;;;;;;4.11;nan;102035.03;4993021;28;20428;-76
2021/11/19 01:18:55;;;;;;;22.92;12.20;;;;;;;4.19;nan;102032.88;4991992;28;20042;-77
2021/11/19 01:21:31;;;;;;;20.98;11.95;;;;;;;4.25;nan;102030.81;4986452;28;20117;-77
2021/11/19 01:23:58;;;;;;;20.92;11.98;;;;;;;4.25;nan;102036.03;4992010;28;20045;-76
2021/11/19 01:26:29;;;;;;;18.00;11.30;;;;;;;4.23;nan;102044.91;4992052;28;20034;-76
2021/11/19 01:28:59;;;;;;;17.30;11.20;;;;;;;4.25;nan;102036.03;4991401;28;20041;-75
2021/11/19 01:31:29;;;;;;;16.27;10.30;;;;;;;4.31;nan;102034.88;4993026;28;20026;-77
2021/11/19 01:33:54;;;;;;;17.05;10.40;;;;;;;4.35;nan;102027.75;4993030;28;20531;-77
2021/11/19 01:36:21;;;;;;;22.42;11.60;;;;;;;4.41;nan;102036.16;4990795;28;20034;-79
2021/11/19 01:38:47;;;;;;;19.98;11.32;;;;;;;4.46;nan;102036.78;4987070;28;20038;-78
2021/11/19 01:41:25;;;;;;;23.55;13.50;;;;;;;4.51;nan;102036.56;4995093;28;20566;-78
2021/11/19 01:43:51;;;;;;;24.42;12.82;;;;;;;4.53;nan;102025.97;4992126;28;20034;-78
2021/11/19 01:46:21;;;;;;;19.63;12.02;;;;;;;4.55;nan;102026.75;4991598;28;20089;-78
2021/11/19 01:48:50;;;;;;;24.23;13.25;;;;;;;4.57;nan;102031.00;4992108;28;20422;-79
2021/11/19 01:51:18;;;;;;;27.88;13.93;;;;;;;4.65;nan;102033.25;4990732;28;20034;-78
2021/11/19 01:53:49;;;;;;;22.05;12.35;;;;;;;4.64;nan;102032.38;4992016;28;20031;-78
2021/11/19 01:56:43;;;;;;;26.58;14.63;;;;;;;4.72;nan;102021.56;4982965;28;20199;-78
2021/11/19 01:59:13;;;;;;;26.65;14.13;;;;;;;4.75;nan;102018.75;4991348;28;20401;-78
2021/11/19 02:02:03;;;;;;;33.60;14.57;;;;;;;4.74;nan;102017.06;4992649;28;20045;-79
2021/11/19 02:04:33;;;;;;;28.85;14.32;;;;;;;4.76;nan;102024.84;4997512;28;20038;-78
2021/11/19 02:07:22;;;;;;;27.00;14.27;;;;;;;4.76;nan;102022.22;4996183;28;20109;-78
2021/11/19 02:09:59;;;;;;;29.92;15.23;;;;;;;4.80;nan;102021.16;4993495;28;20046;-78
2021/11/19 02:13:10;;;;;;;24.40;13.15;;;;;;;4.84;nan;102027.94;4997561;28;20069;-78
2021/11/19 02:15:41;;;;;;;25.05;13.65;;;;;;;4.88;nan;102035.53;4987338;28;20030;-78
2021/11/19 02:18:15;;;;;;;;;;;;;;;4.95;nan;102028.22;4989665;28;20038;-78
2021/11/19 02:20:43;;;;;;;25.65;13.63;;;;;;;4.97;nan;102026.38;4987879;28;20047;-77
2021/11/19 02:23:15;;;;;;;29.33;15.15;;;;;;;5.01;nan;102027.94;4991754;28;20121;-77
2021/11/19 02:25:45;;;;;;;31.77;15.70;;;;;;;5.02;nan;102031.38;4991523;28;20030;-78
2021/11/19 02:28:17;;;;;;;29.00;14.57;;;;;;;5.06;nan;102033.78;4991712;28;20395;-78
2021/11/19 02:30:45;;;;;;;27.67;13.23;;;;;;;5.07;nan;102029.38;4991858;28;20042;-77
2021/11/19 02:33:11;;;;;;;28.45;13.70;;;;;;;5.11;nan;102026.50;4989234;28;20034;-78
2021/11/19 02:35:58;;;;;;;31.52;15.52;;;;;;;5.17;nan;102022.72;4991880;28;20129;-79
2021/11/19 02:38:30;;;;;;;29.48;16.30;;;;;;;5.24;nan;102015.38;4984548;28;20399;-78
2021/11/19 02:40:56;;;;;;;30.55;15.35;;;;;;;5.28;nan;102017.75;4991949;28;20038;-78
2021/11/19 02:43:34;;;;;;;37.13;18.65;;;;;;;5.33;nan;102023.59;4992578;28;20395;-78
2021/11/19 02:45:59;;;;;;;38.85;17.45;;;;;;;5.34;nan;102016.63;4991328;28;20450;-77
2021/11/19 02:48:29;;;;;;;33.17;17.00;;;;;;;5.38;nan;102019.91;4990767;28;20038;-78
2021/11/19 02:50:57;;;;;;;37.28;17.70;;;;;;;5.37;nan;102020.84;4991610;28;20037;-78
2021/11/19 02:53:23;;;;;;;38.15;17.38;;;;;;;5.39;nan;102013.75;4989524;28;20060;-78
2021/11/19 02:55:52;;;;;;;34.38;16.50;;;;;;;5.42;nan;102014.41;4990887;28;20030;-78
2021/11/19 02:58:22;;;;;;;36.40;17.40;;;;;;;5.41;nan;102022.34;4989745;28;20058;-78
2021/11/19 03:00:51;;;;;;;34.92;17.50;;;;;;;5.41;nan;102030.22;4991315;28;20112;-78
2021/11/19 03:03:18;;;;;;;38.22;19.50;;;;;;;5.46;nan;102022.97;4988872;28;20037;-78
2021/11/19 03:05:43;;;;;;;36.03;18.35;;;;;;;5.46;nan;102025.59;4989489;28;20035;-78
2021/11/19 03:08:09;;;;;;;34.35;17.27;;;;;;;5.47;nan;102027.28;4989249;28;20385;-78
2021/11/19 03:10:40;;;;;;;39.30;19.10;;;;;;;5.54;nan;102016.38;4990482;28;20491;-78
2021/11/19 03:13:07;;;;;;;40.58;19.08;;;;;;;5.56;nan;102031.22;4990720;28;20030;-78
2021/11/19 03:15:37;;;;;;;37.63;18.10;;;;;;;5.58;nan;102034.56;4990872;28;20035;-78
2021/11/19 03:18:03;;;;;;;43.22;18.90;;;;;;;5.57;nan;102049.47;4990995;28;20514;-78
2021/11/19 03:20:29;;;;;;;36.95;19.05;;;;;;;5.61;nan;102039.69;4989504;28;20050;-78
2021/11/19 03:22:55;;;;;;;36.83;19.00;;;;;;;5.58;nan;102032.81;4990276;28;20041;-78
2021/11/19 03:25:25;;;;;;;44.35;20.58;;;;;;;5.65;nan;102039.44;4990403;28;20046;-77
2021/11/19 03:27:50;;;;;;;38.83;18.05;;;;;;;5.60;nan;102046.72;4989233;28;20038;-78
2021/11/19 03:30:19;;;;;;;43.55;19.90;;;;;;;5.66;nan;102049.00;4990096;28;20041;-78
2021/11/19 03:32:45;;;;;;;42.63;20.13;;;;;;;5.64;nan;102042.13;4990864;28;20026;-79
2021/11/19 03:35:14;;;;;;;40.33;20.27;;;;;;;5.60;nan;102046.72;4990557;28;20034;-78
2021/11/19 03:37:42;;;;;;;38.58;19.63;;;;;;;5.60;nan;102045.84;4990374;28;20038;-78
2021/11/19 03:40:09;;;;;;;37.38;18.73;;;;;;;5.56;nan;102047.78;4990008;28;20053;-79
2021/11/19 03:42:35;;;;;;;41.53;20.77;;;;;;;5.57;nan;102040.75;4990577;28;20049;-78
2021/11/19 03:45:03;;;;;;;37.72;20.08;;;;;;;5.62;nan;102042.19;4989943;28;20313;-78
2021/11/19 03:47:33;;;;;;;41.42;21.20;;;;;;;5.61;nan;102039.69;4988957;28;20046;-78
2021/11/19 03:49:59;;;;;;;40.22;20.75;;;;;;;5.64;nan;102036.88;4990685;28;20090;-78
2021/11/19 03:52:33;;;;;;;38.15;19.38;;;;;;;5.59;nan;102037.13;4989061;28;20103;-78
2021/11/19 03:55:06;;;;;;;34.58;18.27;;;;;;;5.53;nan;102045.34;4990089;28;20062;-78
2021/11/19 03:57:32;;;;;;;38.63;19.95;;;;;;;5.60;nan;102030.97;4987934;28;20041;-78
2021/11/19 03:59:58;;;;;;;37.53;19.48;;;;;;;5.64;nan;102032.47;4990070;28;20062;-78
2021/11/19 04:02:28;;;;;;;41.53;19.58;;;;;;;5.60;nan;102030.97;4989018;28;20499;-78
2021/11/19 04:04:54;;;;;;;37.30;19.10;;;;;;;5.61;nan;102029.19;4990113;28;20324;-78
2021/11/19 04:07:20;;;;;;;38.55;18.17;;;;;;;5.55;nan;102032.97;4989849;28;20038;-77
2021/11/19 04:09:46;;;;;;;37.03;18.35;;;;;;;5.56;nan;102033.84;4990459;28;20030;-78
2021/11/19 04:12:14;;;;;;;39.60;19.38;;;;;;;5.64;nan;102026.38;4989624;28;20034;-78
2021/11/19 04:14:40;;;;;;;43.38;19.92;;;;;;;5.64;nan;102026.38;4989201;28;20026;-78
2021/11/19 04:17:06;;;;;;;38.22;18.40;;;;;;;5.55;nan;102030.34;4989642;28;20096;-78
2021/11/19 04:19:32;;;;;;;36.28;18.02;;;;;;;5.59;nan;102031.88;4992084;28;20042;-78
2021/11/19 04:22:01;;;;;;;37.80;18.98;;;;;;;5.63;nan;102027.31;4995581;28;20037;-78
2021/11/19 04:24:35;;;;;;;37.85;18.55;;;;;;;5.66;nan;102022.75;4993985;28;20559;-78
2021/11/19 04:27:00;;;;;;;36.03;17.75;;;;;;;5.61;nan;102024.78;4996522;28;20054;-78
2021/11/19 04:29:26;;;;;;;39.40;18.23;;;;;;;5.66;nan;102032.41;4995998;28;20050;-79
2021/11/19 04:31:51;;;;;;;35.45;18.17;;;;;;;5.63;nan;102030.78;4994591;28;20181;-78
2021/11/19 04:34:17;;;;;;;32.03;16.33;;;;;;;5.62;nan;102033.50;4994189;28;20626;-78
2021/11/19 04:36:42;;;;;;;34.63;17.23;;;;;;;5.63;nan;102028.16;4996662;28;20037;-78
2021/11/19 04:39:10;;;;;;;32.80;17.15;;;;;;;5.67;nan;102034.94;4996925;28;20121;-78
2021/11/19 04:41:36;;;;;;;36.97;18.35;;;;;;;5.66;nan;102033.25;4996820;28;20044;-78
2021/11/19 04:44:02;;;;;;;36.58;18.65;;;;;;;5.69;nan;102033.06;4996426;28;20054;-78
2021/11/19 04:46:28;;;;;;;34.20;17.38;;;;;;;5.70;nan;102034.78;4994656;28;20499;-78
2021/11/19 04:48:53;;;;;;;34.75;18.10;;;;;;;5.74;nan;102032.81;4996897;28;20060;-78
2021/11/19 04:51:29;;;;;;;36.28;18.25;;;;;;;5.67;nan;102034.06;4996746;28;20043;-77
2021/11/19 04:53:55;;;;;;;43.17;18.40;;;;;;;5.73;nan;102037.22;4996275;28;20046;-78
2021/11/19 04:56:23;;;;;;;36.72;18.65;;;;;;;5.66;nan;102029.78;4995288;28;26340;-78
2021/11/19 04:58:48;;;;;;;39.47;18.15;;;;;;;5.63;nan;102028.16;4995655;28;20546;-78
2021/11/19 05:01:17;;;;;;;39.63;19.10;;;;;;;5.66;nan;102027.16;4996627;28;20129;-78
2021/11/19 05:03:43;;;;;;;35.15;17.27;;;;;;;5.61;nan;102027.41;4996345;28;20034;-78
2021/11/19 05:06:09;;;;;;;33.17;17.13;;;;;;;5.63;nan;102035.19;4995439;28;20039;-78
2021/11/19 05:08:35;;;;;;;37.17;17.73;;;;;;;5.69;nan;102032.22;4996302;28;20058;-79
2021/11/19 05:11:01;;;;;;;33.72;16.40;;;;;;;5.69;nan;102037.47;4995360;28;20042;-78
2021/11/19 05:13:30;;;;;;;33.42;16.98;;;;;;;5.65;nan;102041.19;4996040;28;20044;-78
2021/11/19 05:15:57;;;;;;;32.20;16.08;;;;;;;5.70;nan;102047.06;4995266;28;20623;-78
2021/11/19 05:18:25;;;;;;;32.50;16.50;;;;;;;5.70;nan;102041.81;5002419;28;20062;-79
2021/11/19 05:20:51;;;;;;;31.45;16.27;;;;;;;5.67;nan;102032.31;4996685;28;20044;-78
2021/11/19 05:23:17;;;;;;;30.40;16.80;;;;;;;5.74;nan;102038.94;5004405;28;20125;-78
2021/11/19 05:25:44;;;;;;;29.27;15.93;;;;;;;5.77;nan;102037.94;4995022;28;20039;-78
2021/11/19 05:28:12;;;;;;;35.70;17.38;;;;;;;5.78;nan;102030.88;4995449;28;20038;-78
2021/11/19 05:30:39;;;;;;;30.88;15.68;;;;;;;5.81;nan;102023.69;4995418;28;20414;-78
2021/11/19 05:33:06;;;;;;;27.73;15.23;;;;;;;5.71;nan;102033.84;4990732;28;20026;-78
2021/11/19 05:35:32;;;;;;;30.67;15.27;;;;;;;5.73;nan;102031.97;4993206;28;20084;-78
2021/11/19 05:37:57;;;;;;;31.15;15.65;;;;;;;5.74;nan;102033.69;4993121;28;20114;-78
2021/11/19 05:40:23;;;;;;;31.17;15.15;;;;;;;5.76;nan;102036.22;4992348;28;20038;-77
2021/11/19 05:42:50;;;;;;;36.97;17.23;;;;;;;5.80;nan;102035.13;4992959;28;20030;-78
2021/11/19 05:45:18;;;;;;;30.50;15.43;;;;;;;5.79;nan;102030.78;4990827;28;20093;-79
2021/11/19 05:47:43;;;;;;;32.97;16.48;;;;;;;5.75;nan;102027.50;4995737;28;20033;-78
2021/11/19 05:50:11;;;;;;;36.40;16.95;;;;;;;5.81;nan;102034.19;4992274;28;20403;-76
2021/11/19 05:52:37;;;;;;;31.90;15.90;;;;;;;5.78;nan;102030.88;4998004;28;20050;-77
2021/11/19 05:55:08;;;;;;;29.80;15.88;;;;;;;5.79;nan;102038.66;4993620;28;20037;-76
2021/11/19 05:57:33;;;;;;;32.83;16.15;;;;;;;5.74;nan;102027.56;4992394;28;20034;-77
2021/11/19 05:59:58;;;;;;;36.15;17.40;;;;;;;5.78;nan;102033.50;4992211;28;20043;-77
2021/11/19 06:02:24;;;;;;;27.88;16.10;;;;;;;5.78;nan;102033.50;4991805;28;20044;-77
2021/11/19 06:04:49;;;;;;;29.38;15.65;;;;;;;5.81;nan;102051.72;4992642;28;20026;-77
2021/11/19 06:07:16;;;;;;;33.85;16.10;;;;;;;5.84;nan;102052.41;4992448;28;20030;-77
2021/11/19 06:09:43;;;;;;;34.45;16.73;;;;;;;5.87;nan;102060.09;4990862;28;20089;-77
2021/11/19 06:12:16;;;;;;;31.77;15.82;;;;;;;5.88;nan;102064.41;4991875;28;20026;-77
2021/11/19 06:14:46;;;;;;;31.30;16.38;;;;;;;5.86;nan;102055.78;4992585;28;20026;-77
2021/11/19 06:17:20;;;;;;;34.20;16.40;;;;;;;5.86;nan;102055.78;4987252;28;20402;-77
2021/11/19 06:19:50;;;;;;;30.08;15.57;;;;;;;5.87;nan;102054.03;4991907;28;20031;-77
2021/11/19 06:22:23;;;;;;;34.63;15.00;;;;;;;5.89;nan;102053.00;4991591;28;20093;-77
2021/11/19 06:24:51;;;;;;;35.90;16.02;;;;;;;5.92;nan;102049.34;4992031;28;20125;-77
2021/11/19 06:27:22;;;;;;;28.10;15.57;;;;;;;5.90;nan;102041.56;4992195;28;20035;-77
2021/11/19 06:29:49;;;;;;;36.63;16.45;;;;;;;5.86;nan;102049.69;4992954;28;20516;-77
2021/11/19 06:32:15;;;;;;;35.70;16.33;;;;;;;5.94;nan;102052.78;4998688;28;20034;-76
2021/11/19 06:34:40;;;;;;;34.58;16.60;;;;;;;5.97;nan;102049.97;4990968;28;20399;-77
2021/11/19 06:37:05;;;;;;;33.15;14.82;;;;;;;5.95;nan;102050.06;4992142;28;20526;-77
2021/11/19 06:39:32;;;;;;;28.15;14.95;;;;;;;5.99;nan;102055.16;4990244;28;20050;-77
2021/11/19 06:41:57;;;;;;;33.50;16.60;;;;;;;6.03;nan;102064.53;4992150;28;20030;-77
2021/11/19 06:44:22;;;;;;;33.60;16.08;;;;;;;6.02;nan;102070.72;4991967;28;20513;-77
2021/11/19 06:46:48;;;;;;;29.73;15.20;;;;;;;6.03;nan;102073.28;4993543;28;20042;-77
2021/11/19 06:49:14;;;;;;;33.45;15.90;;;;;;;6.08;nan;102073.03;4990469;28;20061;-77
2021/11/19 06:51:40;;;;;;;32.40;16.85;;;;;;;6.10;nan;102073.78;4991552;28;20124;-77
2021/11/19 06:54:05;;;;;;;28.63;14.75;;;;;;;6.07;nan;102069.53;4990584;28;20038;-77
2021/11/19 06:56:31;;;;;;;32.97;16.40;;;;;;;6.12;nan;102070.13;4989547;28;20030;-77
2021/11/19 06:58:57;;;;;;;35.00;16.45;;;;;;;6.13;nan;102073.63;4990528;28;20584;-77
2021/11/19 07:01:23;;;;;;;31.00;15.27;;;;;;;6.09;nan;102075.56;4990819;28;20491;-77
2021/11/19 07:03:48;;;;;;;32.75;16.02;;;;;;;6.11;nan;102072.84;4982220;28;20049;-77
2021/11/19 07:06:14;;;;;;;31.92;15.70;;;;;;;6.12;nan;102079.78;4978399;28;20070;-76
2021/11/19 07:08:41;;;;;;;32.33;15.15;;;;;;;6.12;nan;102072.75;4982108;28;20420;-77
2021/11/19 07:11:09;;;;;;;34.15;15.38;;;;;;;6.16;nan;102081.31;4982309;28;20035;-77
2021/11/19 07:13:35;;;;;;;33.92;15.65;;;;;;;6.23;nan;102087.09;4983810;28;20117;-77
2021/11/19 07:16:01;;;;;;;34.35;17.15;;;;;;;6.27;nan;102092.09;4984404;28;20042;-77
2021/11/19 07:18:27;;;;;;;28.58;15.85;;;;;;;6.28;nan;102088.53;4984195;28;20407;-77
2021/11/19 07:20:53;;;;;;;29.48;15.35;;;;;;;6.30;nan;102096.31;4986972;28;20159;-77
2021/11/19 07:23:19;;;;;;;31.48;15.38;;;;;;;6.26;nan;102100.03;4993980;28;20085;-76
2021/11/19 07:25:45;;;;;;;29.80;14.50;;;;;;;6.31;nan;102100.63;4993611;28;20121;-75
2021/11/19 07:28:11;;;;;;;30.95;15.90;;;;;;;6.36;nan;102106.47;4990787;28;20034;-76
2021/11/19 07:30:49;;;;;;;36.95;16.95;;;;;;;6.37;nan;102102.94;4997542;28;20393;-75
2021/11/19 07:33:15;;;;;;;31.33;15.45;;;;;;;6.40;nan;102117.69;4985859;28;20402;-77
2021/11/19 07:35:42;;;;;;;28.65;14.95;;;;;;;6.35;nan;102108.25;4990599;28;20039;-77
2021/11/19 07:38:08;;;;;;;26.70;15.45;;;;;;;6.37;nan;102114.28;4990913;28;20077;-77
2021/11/19 07:40:36;;;;;;;31.55;14.55;;;;;;;6.40;nan;102117.69;4994121;28;20592;-76
2021/11/19 07:43:02;;;;;;;30.33;14.48;;;;;;;6.40;nan;102121.16;4990375;28;20058;-77
2021/11/19 07:45:35;;;;;;;29.40;15.05;;;;;;;6.42;nan;102121.91;4989594;28;20463;-77
2021/11/19 07:48:00;;;;;;;33.55;15.25;;;;;;;6.46;nan;102118.19;4990666;28;20038;-77
2021/11/19 07:50:26;;;;;;;34.35;16.13;;;;;;;6.52;nan;102109.94;4992613;28;20030;-77
2021/11/19 07:52:52;;;;;;;30.70;16.13;;;;;;;6.57;nan;102121.03;4990741;28;20038;-77
2021/11/19 07:55:18;;;;;;;32.92;15.80;;;;;;;6.51;nan;102129.28;4989920;28;20065;-77
2021/11/19 07:57:44;;;;;;;30.85;14.50;;;;;;;6.52;nan;102132.75;4989927;28;20054;-76
2021/11/19 08:00:15;;;;;;;29.38;14.60;;;;;;;6.58;nan;102132.41;4990286;28;20060;-77
2021/11/19 08:02:40;;;;;;;31.27;14.82;;;;;;;6.59;nan;102131.47;4991422;28;20045;-77
2021/11/19 08:05:06;;;;;;;27.92;14.48;;;;;;;6.65;nan;102130.28;4991077;28;20471;-76
2021/11/19 08:07:33;;;;;;;27.35;15.13;;;;;;;6.64;nan;102128.59;4991153;28;20546;-77
2021/11/19 08:09:59;;;;;;;28.58;13.60;;;;;;;6.67;nan;102128.41;4990369;28;20407;-77
2021/11/19 08:12:25;;;;;;;33.10;16.08;;;;;;;6.75;nan;102121.78;4987167;28;20045;-77
2021/11/19 08:14:51;;;;;;;25.90;13.90;;;;;;;6.71;nan;102117.63;4989398;28;20049;-77
2021/11/19 08:17:30;;;;;;;32.88;15.50;;;;;;;6.76;nan;102120.00;4987958;28;20038;-77
2021/11/19 08:19:56;;;;;;;32.13;16.48;;;;;;;6.73;nan;102121.03;4990048;28;20443;-77
2021/11/19 08:22:21;;;;;;;35.67;16.08;;;;;;;6.75;nan;102120.94;4989857;28;20030;-77
2021/11/19 08:24:48;;;;;;;32.67;15.32;;;;;;;6.66;nan;102122.31;4990658;28;20034;-77
2021/11/19 08:27:20;;;;;;;35.25;15.88;;;;;;;6.65;nan;102120.63;4989317;28;20058;-77
2021/11/19 08:29:50;;;;;;;30.48;16.15;;;;;;;6.64;nan;102116.28;4988842;28;20110;-77
2021/11/19 08:32:16;;;;;;;34.10;16.63;;;;;;;6.74;nan;102116.59;4989065;28;20516;-77
2021/11/19 08:34:42;;;;;;;31.90;15.23;;;;;;;6.74;nan;102109.56;4988184;28;20039;-77
2021/11/19 08:37:08;;;;;;;34.10;16.27;;;;;;;6.79;nan;102117.19;4988827;28;20575;-77
2021/11/19 08:39:34;;;;;;;41.90;19.17;;;;;;;6.78;nan;102108.47;4989491;28;20031;-77
2021/11/19 08:42:00;;;;;;;39.05;16.83;;;;;;;6.81;nan;102112.69;4995821;28;20592;-77
2021/11/19 08:44:26;;;;;;;36.60;16.95;;;;;;;6.81;nan;102115.31;4994412;28;20058;-77
2021/11/19 08:46:54;;;;;;;37.25;17.35;;;;;;;6.80;nan;102129.41;4988920;28;20035;-77
2021/11/19 08:49:26;;;;;;;37.47;17.20;;;;;;;6.85;nan;102119.47;4990417;28;20030;-77
2021/11/19 08:51:52;;;;;;;35.45;17.45;;;;;;;6.85;nan;102119.47;4988398;28;20038;-76
2021/11/19 08:54:18;;;;;;;29.50;15.60;;;;;;;6.84;nan;102111.66;4988784;28;20414;-77
2021/11/19 08:56:49;;;;;;;30.73;15.02;;;;;;;6.86;nan;102117.69;4990709;28;20053;-77
2021/11/19 08:59:15;;;;;;;;;;;;;;;6.90;nan;102127.09;4990477;28;20066;-77
2021/11/19 09:01:45;;;;;;;28.95;14.02;;;;;;;7.03;nan;102128.06;4990340;28;19928;-77
2021/11/19 09:04:11;;;;;;;38.20;16.98;;;;;;;7.09;nan;102127.72;4988417;28;20038;-77
2021/11/19 09:06:36;;;;;;;32.70;16.05;;;;;;;7.14;nan;102125.66;4988012;28;20482;-77
2021/11/19 09:09:05;;;;;;;30.63;15.35;;;;;;;7.16;nan;102125.59;4993409;28;20041;-77
2021/11/19 09:11:31;;;;;;;27.30;14.95;;;;;;;7.14;nan;102124.81;4986919;28;20069;-77
2021/11/19 09:13:57;;;;;;;29.40;14.70;;;;;;;7.14;nan;102123.03;4990539;28;20034;-77
2021/11/19 09:16:27;;;;;;;39.83;17.27;;;;;;;7.10;nan;102120.66;4990519;28;20411;-77
2021/11/19 09:19:36;;;;;;;33.80;14.82;;;;;;;7.10;nan;102128.56;4989877;28;20034;-76
2021/11/19 09:22:13;;;;;;;36.35;15.93;;;;;;;7.22;nan;102127.84;4938285;28;20032;-77
2021/11/19 09:24:39;;;;;;;29.25;14.85;;;;;;;7.17;nan;102136.00;4977887;28;20030;-77
2021/11/19 09:27:11;;;;;;;31.83;14.43;;;;;;;7.15;nan;102135.28;4992639;28;20058;-77
2021/11/19 09:29:48;;;;;;;34.70;16.48;;;;;;;7.22;nan;102130.47;4992735;28;20026;-77
2021/11/19 09:32:16;;;;;;;33.83;16.38;;;;;;;7.17;nan;102133.38;4985778;28;20196;-77
2021/11/19 09:34:47;;;;;;;30.42;15.80;;;;;;;7.14;nan;102133.56;4991638;28;20210;-76
2021/11/19 09:37:14;;;;;;;38.90;17.67;;;;;;;7.17;nan;102137.78;4992631;28;20034;-77
2021/11/19 09:39:41;;;;;;;34.17;16.15;;;;;;;7.11;nan;102141.63;4992424;28;20038;-77
2021/11/19 09:42:34;;;;;;;30.95;14.40;;;;;;;7.07;nan;102141.91;4991918;28;20030;-77
2021/11/19 09:45:32;;;;;;;34.00;15.50;;;;;;;7.10;nan;102141.72;4991334;28;20041;-77
2021/11/19 09:48:15;;;;;;;30.23;14.68;;;;;;;7.14;nan;102137.97;4992486;28;20042;-77
2021/11/19 09:51:13;;;;;;;38.50;16.60;;;;;;;7.13;nan;102137.13;4992425;28;20065;-77
2021/11/19 09:53:54;;;;;;;46.20;17.27;;;;;;;7.17;nan;102137.78;4974492;28;20108;-77
2021/11/19 09:56:53;;;;;;;37.43;16.60;;;;;;;7.21;nan;102134.88;4990210;28;20195;-77
2021/11/19 09:59:31;;;;;;;30.25;13.77;;;;;;;7.19;nan;102136.75;4985437;28;20278;-76
2021/11/19 10:02:24;;;;;;;33.35;15.43;;;;;;;7.30;nan;102135.31;4991847;28;20442;-75
2021/11/19 10:05:20;;;;;;;33.88;16.10;;;;;;;7.34;nan;102129.75;4989661;28;20038;-76
2021/11/19 10:07:58;;;;;;;31.48;14.95;;;;;;;7.36;nan;102133.13;4991851;28;20047;-76
2021/11/19 10:10:33;;;;;;;33.85;15.70;;;;;;;7.39;nan;102124.22;4988946;28;20039;-76
2021/11/19 10:13:04;;;;;;;38.72;16.10;;;;;;;7.34;nan;102127.13;4991048;28;20114;-76
2021/11/19 10:15:57;;;;;;;27.92;14.25;;;;;;;7.32;nan;102125.53;4990670;28;20042;-75
2021/11/19 10:18:34;;;;;;;29.58;14.35;;;;;;;7.29;nan;102115.16;4989306;28;20038;-75
2021/11/19 10:21:07;;;;;;;32.75;14.57;;;;;;;7.27;nan;102115.28;4988922;28;20057;-75
2021/11/19 10:23:38;;;;;;;31.75;13.95;;;;;;;7.34;nan;102116.59;4989334;28;20038;-75
2021/11/19 10:26:06;;;;;;;;;;;;;;;7.41;nan;102117.94;4991454;28;20043;-76
2021/11/19 10:28:41;;;;;;;31.27;14.50;;;;;;;7.44;nan;102123.00;4990773;28;19921;-76
2021/11/19 10:31:10;;;;;;;31.65;15.82;;;;;;;7.49;nan;102114.00;4991212;28;20306;-75
2021/11/19 10:33:44;;;;;;;32.22;15.18;;;;;;;7.41;nan;102110.03;4994393;28;20045;-75
2021/11/19 10:36:27;;;;;;;31.40;14.32;;;;;;;7.49;nan;102108.72;4988509;28;20106;-75
2021/11/19 10:39:35;;;;;;;28.90;15.18;;;;;;;7.56;nan;102108.25;4989339;28;20038;-75
2021/11/19 10:42:34;;;;;;;28.77;14.45;;;;;;;7.52;nan;102103.28;4989862;28;20049;-75
2021/11/19 10:45:18;;;;;;;31.45;15.88;;;;;;;7.50;nan;102105.97;5001521;28;20042;-75
2021/11/19 10:48:32;;;;;;;32.35;16.17;;;;;;;7.57;nan;102107.31;4989936;28;20295;-75
2021/11/19 10:51:22;;;;;;;35.08;16.17;;;;;;;7.56;nan;102100.34;4953608;28;20066;-75
2021/11/19 10:53:56;;;;;;;29.80;14.63;;;;;;;7.42;nan;102101.19;4990258;28;20074;-75
2021/11/19 10:56:46;;;;;;;26.33;13.50;;;;;;;7.47;nan;102098.28;4990805;28;20112;-77
2021/11/19 10:59:31;;;;;;;28.45;14.88;;;;;;;7.56;nan;102099.53;4990628;28;20280;-77
2021/11/19 11:02:19;;;;;;;25.45;12.60;;;;;;;7.60;nan;102093.09;4990728;28;20041;-77
2021/11/19 11:04:52;;;;;;;44.17;18.30;;;;;;;7.72;nan;102092.34;4973767;28;20393;-77
2021/11/19 11:07:17;;;;;;;35.00;16.23;;;;;;;7.68;nan;102088.22;4990090;28;20046;-77
2021/11/19 11:09:59;;;;;;;30.38;15.93;;;;;;;7.66;nan;102083.06;4990405;28;20093;-78
2021/11/19 11:12:32;;;;;;;32.53;16.63;;;;;;;7.67;nan;102086.53;4984006;28;20042;-77
2021/11/19 11:15:30;;;;;;;38.25;17.77;;;;;;;7.68;nan;102082.97;4989193;28;20517;-77
2021/11/19 11:17:58;;;;;;;27.90;15.80;;;;;;;7.63;nan;102085.03;4991246;28;20542;-77
2021/11/19 11:20:32;;;;;;;25.00;13.52;;;;;;;7.65;nan;102086.63;4989807;28;20121;-77
2021/11/19 11:23:15;;;;;;;29.60;15.20;;;;;;;7.72;nan;102080.97;4995682;28;20050;-77
2021/11/19 11:25:41;;;;;;;37.42;18.38;;;;;;;7.80;nan;102081.38;4990551;28;20534;-77
2021/11/19 11:28:18;;;;;;;35.83;16.60;;;;;;;7.76;nan;102085.13;4990190;28;20035;-77
2021/11/19 11:30:57;;;;;;;35.58;17.15;;;;;;;7.74;nan;102081.72;4987019;28;20096;-76
2021/11/19 11:33:28;;;;;;;32.58;15.52;;;;;;;7.72;nan;102076.56;4988615;28;20030;-76
2021/11/19 11:36:07;;;;;;;31.55;16.02;;;;;;;7.56;nan;102078.47;4991971;28;20110;-76
2021/11/19 11:38:51;;;;;;;28.65;14.30;;;;;;;7.49;nan;102075.34;4990487;28;20105;-76
2021/11/19 11:41:20;;;;;;;24.05;13.07;;;;;;;7.48;nan;102075.44;4989037;28;20455;-76
2021/11/19 11:44:06;;;;;;;23.85;14.23;;;;;;;7.57;nan;102078.34;4989324;28;20041;-76
2021/11/19 11:46:36;;;;;;;25.98;13.05;;;;;;;7.62;nan;102071.00;4996565;28;20062;-76
2021/11/19 11:49:32;;;;;;;24.45;13.10;;;;;;;7.58;nan;102071.28;4997644;28;20034;-76